Aeroporto :







RITROVATECI SU...

 
LOGIN :

Iscrizione | Disclaimer

   EN    FR    IT 

 









Sommario :    VFR   VFR Marginale   IFR   IFR Intensivo   IFR Molto Intensivo
Visibilità : 
Base nubi : 
>= 8 km
>= 3000ft
5 / 8 km
1000 / 3000 ft
1500m / 5 km
500 / 1000 ft
800 / 1500m
200 / 500 ft
< 800m
< 200 ft
Simboli :   Temporali  Nebbia  Neve Forte  Precipitazioni Forti  Vento > 20 kt






- Altitudine del aeroporto : 160 ft
- Codice IATA : YYR


CYYR - Goose Bay

ULTIMO METAR :
  • 240600Z 31013G21KT 8SM -SHSN DRSN FEW021 BKN047 OVC059 M09/M13 A3000 RMK SC2SC4SC2 SLP165

METARs OBSOLETI :
  • 240500Z 34011KT 10SM -SHSN DRSN BKN033 OVC059 M08/M11 A2996 RMK SC6SC2 SLP149
  • 240439Z 35013G18KT 8SM -SHSN DRSN BKN033 OVC059 M08/M10 A2995 RMK SC6SC2 SLP145
  • 240427Z 34017G28KT 4SM -SHSN DRSN BKN033 OVC059 M08/M11 A2994 RMK SC6SC2 WSHFT 0420 SLP141
  • 240400Z 28009G15KT 15SM FEW037 BKN064 M06/M12 A2992 RMK SC1SC6 SLP135
  • 240300Z 28010G16KT 15SM FEW045 OVC063 M06/M12 A2989 RMK SC1SC7 SLP127

TAF TAF CYYR
Valido dal 24 a 06 ore il 25 a 06 ore UTC


240530Z 2406/2506 32012G22KT P6SM SCT030 BKN060
TEMPO 2406/2408 5SM -SHSN BKN025 OVC050
FM241600 28010G20KT P6SM FEW040 SCT150
FM242000 25012G22KT P6SM BKN080
FM250300 25008KT P6SM SCT015 BKN060 RMK NXT FCST BY 241200Z



MetMap, La meteo Aeronautica in un colpo d'occhio ! - Copyright ORBIFLY Dicembre 2007 - Disclaimer

ORBIFLY MET'MAP TEAM :

Programmazione e sviluppo : Alexandra Zaïnal
Concezione : Baudouin d'Aumeries
Aiuto per la programmazione : Marc-Olivier Méhu
Supporto tecnico e logistico : Manuel Goepfert
Aiuto per la traduzione : Arnaldo La Scala

Contatto : metmap@orbifly.com




FONTI E CREDITI :

   NOAA